Alvarado, Minnesota
Current Conditions -  °F | °C
As of 3:46 AM on Saturday 20 Dec 2014 (Local Time) from KGFK Reporting Station
Haze Haze  
Wind Chill: -6°   Ceiling: 800
Heat Index: -2°   Visibility: 5mi
Dew Point: -3°   Wind: 7mph
Humidity: 93%   Direction: 210°SSW
Pressure: 30"   Gusts: NA
Location:  48.19°N, 97°W
Report Text: KGFK 200946Z AUTO 21006KT 5SM BR BKN008 OVC011 M02/M03 A3000 RMK AO2 CIG 006V011 TSNO $
Loading
Personal Weather Stations






























Interactive Weather Map New forecast layout! Learn more

10-Day Weather Forecast

Advertisements
Track Severe Weather on mobile